Time;durP1;ratioP1;P1;durP2;ratioP2;P2;SDS_P1;SDS_P2;PMS_P1;PMS_P2;Temp;Humidity;BMP_temperature;BMP_pressure;BME280_temperature;BME280_humidity;BME280_pressure;Samples;Min_cycle;Max_cycle;Signal;HPM_P1;HPM_P2
2023/01/28 00:01:41;;;;;;;;;;;18.40;47.20;;;;;;5073461;28;19943;-74
2023/01/28 00:04:06;;;;;;;;;;;18.40;46.80;;;;;;5074385;28;20403;-74
2023/01/28 00:06:32;;;;;;;;;;;18.40;47.00;;;;;;5074624;28;19924;-74
2023/01/28 00:08:57;;;;;;;;;;;18.40;47.30;;;;;;5074060;28;19923;-74
2023/01/28 00:11:22;;;;;;;;;;;18.30;47.10;;;;;;5071646;28;19924;-73
2023/01/28 00:13:51;;;;;;;;;;;18.30;46.90;;;;;;5061013;28;19917;-74
2023/01/28 00:16:17;;;;;;;;;;;18.30;47.10;;;;;;5058087;28;20246;-74
2023/01/28 00:18:42;;;;;;;;;;;18.30;46.90;;;;;;5081045;28;19913;-74
2023/01/28 00:21:11;;;;;;;;;;;18.30;46.90;;;;;;5070546;28;19916;-74
2023/01/28 00:23:37;;;;;;;;;;;18.30;47.00;;;;;;5073970;28;20368;-74
2023/01/28 00:26:06;;;;;;;;;;;18.20;47.10;;;;;;5068019;28;19931;-74
2023/01/28 00:28:32;;;;;;;;;;;18.20;47.20;;;;;;5073245;28;19923;-74
2023/01/28 00:30:57;;;;;;;;;;;18.20;47.30;;;;;;5071450;28;20299;-74
2023/01/28 00:33:23;;;;;;;;;;;18.20;47.00;;;;;;5071972;28;19912;-74
2023/01/28 00:36:01;;;;;;;;;;;18.20;46.80;;;;;;5066867;28;19923;-74
2023/01/28 00:38:26;;;;;;;;;;;18.20;46.90;;;;;;5063075;28;19966;-73
2023/01/28 00:40:52;;;;;;;;;;;18.10;47.30;;;;;;5060382;28;20327;-74
2023/01/28 00:43:17;;;;;;;;;;;18.10;47.00;;;;;;5064459;28;19952;-74
2023/01/28 00:45:43;;;;;;;;;;;18.10;46.90;;;;;;5069147;28;20372;-74
2023/01/28 00:48:08;;;;;;;;;;;18.10;46.80;;;;;;5054656;28;19913;-74
2023/01/28 00:50:34;;;;;;;;;;;18.00;47.00;;;;;;5066425;28;19916;-73
2023/01/28 00:52:59;;;;;;;;;;;18.00;46.80;;;;;;5063133;28;20114;-74
2023/01/28 00:55:25;;;;;;;;;;;18.00;47.10;;;;;;5073342;28;20375;-74
2023/01/28 00:57:51;;;;;;;;;;;18.00;47.00;;;;;;5071563;28;19919;-74
2023/01/28 01:00:17;;;;;;;;;;;17.90;47.10;;;;;;5073220;28;19912;-73
2023/01/28 01:02:43;;;;;;;;;;;17.90;47.00;;;;;;5073573;28;20284;-74
2023/01/28 01:05:08;;;;;;;;;;;17.90;48.20;;;;;;5073847;28;19917;-74
2023/01/28 01:07:40;;;;;;;;;;;17.90;47.30;;;;;;5072990;28;19932;-73
2023/01/28 01:10:09;;;;;;;;;;;17.90;47.30;;;;;;5079305;28;19913;-73
2023/01/28 01:12:35;;;;;;;;;;;17.80;47.00;;;;;;5069897;28;19916;-74
2023/01/28 01:15:00;;;;;;;;;;;17.80;47.00;;;;;;5058774;28;20284;-74
2023/01/28 01:17:28;;;;;;;;;;;17.80;46.90;;;;;;5073479;28;19912;-73
2023/01/28 01:19:54;;;;;;;;;;;17.80;47.10;;;;;;5064686;28;20365;-74
2023/01/28 01:22:19;;;;;;;;;;;17.70;47.30;;;;;;5073919;28;19919;-74
2023/01/28 01:24:46;;;;;;;;;;;17.80;47.00;;;;;;5072646;28;19915;-74
2023/01/28 01:27:11;;;;;;;;;;;17.70;47.40;;;;;;5070938;28;19961;-74
2023/01/28 01:29:38;;;;;;;;;;;17.70;46.80;;;;;;5069701;28;19923;-73
2023/01/28 01:32:03;;;;;;;;;;;17.70;47.50;;;;;;5072085;28;19916;-74
2023/01/28 01:34:29;;;;;;;;;;;17.70;47.20;;;;;;5068538;28;20342;-74
2023/01/28 01:36:54;;;;;;;;;;;17.70;47.20;;;;;;5056420;28;19966;-73
2023/01/28 01:39:20;;;;;;;;;;;17.70;46.90;;;;;;5070653;28;19958;-73
2023/01/28 01:41:45;;;;;;;;;;;17.70;47.00;;;;;;5072596;28;20372;-74
2023/01/28 01:44:29;;;;;;;;;;;17.70;47.00;;;;;;5071260;28;20380;-74
2023/01/28 01:46:55;;;;;;;;;;;17.70;46.70;;;;;;5056491;28;19917;-73
2023/01/28 01:49:21;;;;;;;;;;;17.60;46.90;;;;;;5069237;28;19958;-74
2023/01/28 01:51:47;;;;;;;;;;;17.60;46.80;;;;;;5071112;28;19916;-74
2023/01/28 01:54:13;;;;;;;;;;;17.60;46.70;;;;;;5072175;28;19915;-73
2023/01/28 01:56:39;;;;;;;;;;;17.60;47.00;;;;;;5070767;28;19916;-74
2023/01/28 01:59:05;;;;;;;;;;;17.60;46.60;;;;;;5070334;28;19916;-73
2023/01/28 02:01:31;;;;;;;;;;;17.50;46.70;;;;;;5072267;28;19958;-73
2023/01/28 02:04:14;;;;;;;;;;;17.60;46.70;;;;;;5072752;28;19951;-74
2023/01/28 02:06:40;;;;;;;;;;;17.50;46.60;;;;;;5070698;28;20342;-73
2023/01/28 02:09:06;;;;;;;;;;;17.50;46.60;;;;;;5066398;28;19912;-73
2023/01/28 02:11:32;;;;;;;;;;;17.50;46.70;;;;;;5071441;28;19908;-74
2023/01/28 02:13:58;;;;;;;;;;;17.50;46.70;;;;;;5065513;28;19912;-74
2023/01/28 02:16:23;;;;;;;;;;;17.60;46.40;;;;;;5054756;28;19946;-74
2023/01/28 02:18:49;;;;;;;;;;;17.60;45.70;;;;;;5050359;28;19952;-74
2023/01/28 02:21:14;;;;;;;;;;;17.70;46.00;;;;;;5067736;28;19923;-73
2023/01/28 02:23:52;;;;;;;;;;;17.80;45.70;;;;;;5071881;28;19923;-74
2023/01/28 02:26:25;;;;;;;;;;;18.00;46.00;;;;;;5057914;28;20614;-73
2023/01/28 02:28:51;;;;;;;;;;;18.20;46.00;;;;;;5045507;28;19971;-74
2023/01/28 02:31:19;;;;;;;;;;;18.50;45.20;;;;;;5055835;28;20400;-74
2023/01/28 02:33:48;;;;;;;;;;;18.60;44.90;;;;;;5071402;28;19923;-74
2023/01/28 02:36:19;;;;;;;;;;;18.60;44.60;;;;;;5070762;28;19919;-74
2023/01/28 02:38:45;;;;;;;;;;;18.50;45.00;;;;;;5068939;28;19966;-74
2023/01/28 02:41:13;;;;;;;;;;;18.60;44.80;;;;;;5069581;28;20285;-74
2023/01/28 02:43:39;;;;;;;;;;;18.70;45.10;;;;;;5071517;28;19958;-73
2023/01/28 02:49:14;;;;;;;;;;;18.90;44.70;;;;;;5067994;28;20315;-74
2023/01/28 02:51:44;;;;;;;;;;;18.90;44.30;;;;;;5061714;28;19923;-73
2023/01/28 02:54:30;;;;;;;;;;;18.90;44.20;;;;;;5071363;28;20509;-74
2023/01/28 02:56:59;;;;;;;;;;;19.00;44.40;;;;;;5067321;28;20337;-74
2023/01/28 02:59:35;;;;;;;;;;;18.90;44.90;;;;;;5067833;28;19913;-74
2023/01/28 03:02:03;;;;;;;;;;;18.90;44.70;;;;;;5053487;28;19908;-74
2023/01/28 03:04:30;;;;;;;;;;;18.90;44.90;;;;;;5075766;28;19969;-74
2023/01/28 03:06:57;;;;;;;;;;;18.90;44.80;;;;;;5070091;28;19926;-74
2023/01/28 03:09:23;;;;;;;;;;;18.90;43.70;;;;;;5050368;28;20014;-74
2023/01/28 03:36:52;;;;;;;;;;;18.40;44.30;;;;;;5057433;28;20011;-73
2023/01/28 03:39:19;;;;;;;;;;;18.30;44.40;;;;;;5053572;28;19952;-73
2023/01/28 03:42:03;;;;;;;;;;;18.30;44.40;;;;;;5066441;28;19970;-73
2023/01/28 03:47:13;;;;;;;;;;;18.20;44.90;;;;;;5069035;28;19934;-74
2023/01/28 03:49:44;;;;;;;;;;;18.20;44.80;;;;;;5071634;28;20431;-73
2023/01/28 03:52:10;;;;;;;;;;;18.20;44.80;;;;;;5080261;28;19919;-73
2023/01/28 03:54:36;;;;;;;;;;;18.20;44.90;;;;;;5074261;28;19912;-73
2023/01/28 03:57:02;;;;;;;;;;;18.20;44.80;;;;;;5072844;28;19958;-72
2023/01/28 03:59:27;;;;;;;;;;;18.10;44.60;;;;;;5072238;28;19916;-73
2023/01/28 04:01:54;;;;;;;;;;;18.10;44.80;;;;;;5074161;28;19913;-73
2023/01/28 04:04:23;;;;;;;;;;;18.20;44.80;;;;;;5068460;28;20283;-74
2023/01/28 04:06:51;;;;;;;;;;;18.20;44.50;;;;;;5075140;28;19928;-74
2023/01/28 04:09:17;;;;;;;;;;;18.10;44.40;;;;;;5072574;28;19912;-73
2023/01/28 04:11:42;;;;;;;;;;;18.10;44.30;;;;;;5074988;28;20395;-74
2023/01/28 04:14:08;;;;;;;;;;;18.10;44.30;;;;;;5060073;28;20285;-74
2023/01/28 04:16:33;;;;;;;;;;;18.20;44.40;;;;;;5066614;28;19930;-74
2023/01/28 04:18:58;;;;;;;;;;;18.20;44.30;;;;;;5074252;28;19920;-73
2023/01/28 04:21:24;;;;;;;;;;;18.20;44.30;;;;;;5074627;28;20490;-72
2023/01/28 04:23:49;;;;;;;;;;;18.20;44.30;;;;;;5072092;28;20397;-73
2023/01/28 04:26:15;;;;;;;;;;;18.20;44.30;;;;;;5071891;28;20419;-74
2023/01/28 04:28:40;;;;;;;;;;;18.20;44.30;;;;;;5072250;28;20257;-72
2023/01/28 04:31:06;;;;;;;;;;;18.20;44.30;;;;;;5074655;28;20360;-73
2023/01/28 04:33:31;;;;;;;;;;;18.20;44.30;;;;;;5072582;28;20029;-73
2023/01/28 04:35:56;;;;;;;;;;;18.10;44.20;;;;;;5051304;28;20018;-73
2023/01/28 04:38:22;;;;;;;;;;;18.10;44.30;;;;;;5061252;28;19917;-73
2023/01/28 04:40:48;;;;;;;;;;;18.10;44.30;;;;;;5055513;28;19970;-74
2023/01/28 04:43:13;;;;;;;;;;;18.10;44.30;;;;;;5072579;28;19913;-73
2023/01/28 04:45:39;;;;;;;;;;;18.10;44.30;;;;;;5073806;28;19916;-74
2023/01/28 04:48:04;;;;;;;;;;;18.10;44.30;;;;;;5071639;28;19916;-73
2023/01/28 04:50:30;;;;;;;;;;;18.10;44.10;;;;;;5070683;28;19923;-74
2023/01/28 04:52:55;;;;;;;;;;;18.00;44.30;;;;;;5071367;28;19912;-73
2023/01/28 04:55:21;;;;;;;;;;;18.00;44.50;;;;;;5074640;28;19910;-74
2023/01/28 04:57:47;;;;;;;;;;;18.00;44.30;;;;;;5073226;28;19912;-73
2023/01/28 05:00:13;;;;;;;;;;;18.00;44.30;;;;;;5072071;28;19995;-73
2023/01/28 05:02:38;;;;;;;;;;;18.00;44.50;;;;;;5048561;28;20254;-73
2023/01/28 05:05:07;;;;;;;;;;;18.00;44.40;;;;;;5073079;28;19960;-73
2023/01/28 05:07:33;;;;;;;;;;;18.00;44.20;;;;;;5064484;28;20296;-73
2023/01/28 05:09:58;;;;;;;;;;;18.00;44.30;;;;;;5074281;28;19913;-73
2023/01/28 05:12:24;;;;;;;;;;;18.10;44.30;;;;;;5040481;28;20436;-73
2023/01/28 05:14:49;;;;;;;;;;;18.00;44.10;;;;;;5052745;28;20277;-73
2023/01/28 05:17:15;;;;;;;;;;;18.00;44.10;;;;;;5068024;28;19940;-73
2023/01/28 05:19:40;;;;;;;;;;;18.00;44.10;;;;;;5066700;28;19962;-73
2023/01/28 05:22:06;;;;;;;;;;;18.00;44.20;;;;;;5071732;28;19912;-73
2023/01/28 05:24:31;;;;;;;;;;;18.00;44.00;;;;;;5073940;28;19927;-73
2023/01/28 05:26:57;;;;;;;;;;;18.00;44.00;;;;;;5071038;28;19920;-73
2023/01/28 05:29:22;;;;;;;;;;;18.00;44.20;;;;;;5073026;28;19909;-73
2023/01/28 05:31:47;;;;;;;;;;;18.00;43.90;;;;;;5062878;28;19913;-74
2023/01/28 05:34:13;;;;;;;;;;;18.00;44.30;;;;;;5072519;28;19916;-73
2023/01/28 05:36:40;;;;;;;;;;;18.00;44.30;;;;;;5072498;28;19923;-74
2023/01/28 05:39:06;;;;;;;;;;;18.00;44.40;;;;;;5072161;28;19916;-74
2023/01/28 05:41:32;;;;;;;;;;;18.00;44.10;;;;;;5066540;28;19958;-73
2023/01/28 05:43:57;;;;;;;;;;;18.00;44.30;;;;;;5056071;28;19943;-73
2023/01/28 05:46:24;;;;;;;;;;;17.90;44.30;;;;;;5064799;28;20296;-73
2023/01/28 05:48:49;;;;;;;;;;;17.90;44.10;;;;;;5055118;28;19923;-73
2023/01/28 05:51:15;;;;;;;;;;;18.00;44.10;;;;;;5070471;28;19916;-74
2023/01/28 05:53:40;;;;;;;;;;;18.00;44.40;;;;;;5072271;28;19909;-73
2023/01/28 05:56:06;;;;;;;;;;;18.00;44.40;;;;;;5065006;28;19919;-73
2023/01/28 05:58:31;;;;;;;;;;;18.00;44.30;;;;;;5063720;28;19908;-73
2023/01/28 06:00:57;;;;;;;;;;;18.00;44.30;;;;;;5069612;28;19912;-74
2023/01/28 06:03:22;;;;;;;;;;;18.00;44.40;;;;;;5069334;28;19987;-73
2023/01/28 06:05:48;;;;;;;;;;;18.00;44.40;;;;;;5069671;28;19938;-73
2023/01/28 06:08:13;;;;;;;;;;;18.00;44.30;;;;;;5068191;28;19978;-73
2023/01/28 06:10:39;;;;;;;;;;;17.90;44.30;;;;;;5070697;28;20391;-74
2023/01/28 06:13:04;;;;;;;;;;;17.90;44.30;;;;;;5066073;28;20451;-73
2023/01/28 06:15:30;;;;;;;;;;;17.90;44.20;;;;;;5063407;28;20017;-73
2023/01/28 06:17:55;;;;;;;;;;;17.90;44.40;;;;;;5069262;28;19912;-73
2023/01/28 06:20:20;;;;;;;;;;;17.90;44.10;;;;;;5076399;28;19908;-73
2023/01/28 06:22:46;;;;;;;;;;;17.90;44.20;;;;;;5074002;28;19912;-74
2023/01/28 06:25:11;;;;;;;;;;;17.90;44.10;;;;;;5083524;28;19958;-73
2023/01/28 06:27:37;;;;;;;;;;;17.90;44.10;;;;;;5070195;28;19923;-73
2023/01/28 06:30:02;;;;;;;;;;;17.90;44.10;;;;;;5051920;28;19971;-73
2023/01/28 06:32:28;;;;;;;;;;;17.90;43.90;;;;;;5071449;28;19965;-73
2023/01/28 06:34:53;;;;;;;;;;;17.90;43.50;;;;;;5070310;28;20398;-73
2023/01/28 06:37:19;;;;;;;;;;;17.90;43.60;;;;;;5071436;28;19923;-73
2023/01/28 06:39:44;;;;;;;;;;;17.90;43.50;;;;;;5071435;28;19920;-74
2023/01/28 06:42:10;;;;;;;;;;;17.90;43.50;;;;;;5072516;28;19920;-73
2023/01/28 06:44:35;;;;;;;;;;;17.90;43.50;;;;;;5071311;28;19913;-73
2023/01/28 06:47:00;;;;;;;;;;;17.90;43.30;;;;;;5070176;28;19969;-73
2023/01/28 06:49:26;;;;;;;;;;;17.90;43.50;;;;;;5070325;28;19921;-74
2023/01/28 06:51:51;;;;;;;;;;;17.90;43.50;;;;;;5068099;28;19913;-73
2023/01/28 06:54:17;;;;;;;;;;;17.90;44.20;;;;;;5071733;28;19912;-74
2023/01/28 06:56:43;;;;;;;;;;;17.90;43.70;;;;;;5050234;28;20543;-73
2023/01/28 06:59:08;;;;;;;;;;;17.90;43.50;;;;;;5061350;28;19951;-73
2023/01/28 07:01:33;;;;;;;;;;;17.90;43.60;;;;;;5069916;28;20367;-74
2023/01/28 07:03:59;;;;;;;;;;;17.80;43.40;;;;;;5068551;28;20265;-72
2023/01/28 07:06:24;;;;;;;;;;;17.80;43.50;;;;;;5070060;28;20299;-74
2023/01/28 07:08:50;;;;;;;;;;;17.80;43.60;;;;;;5069648;28;20476;-73
2023/01/28 07:11:15;;;;;;;;;;;17.80;43.50;;;;;;5071994;28;20085;-74
2023/01/28 07:13:42;;;;;;;;;;;17.80;43.50;;;;;;5056846;28;20365;-74
2023/01/28 07:16:08;;;;;;;;;;;17.80;43.70;;;;;;5060445;28;19913;-74
2023/01/28 07:18:33;;;;;;;;;;;17.80;43.50;;;;;;5069966;28;19962;-74
2023/01/28 07:20:58;;;;;;;;;;;17.80;43.70;;;;;;5069370;28;20410;-73
2023/01/28 07:23:24;;;;;;;;;;;17.80;43.60;;;;;;5073827;28;19919;-74
2023/01/28 07:25:49;;;;;;;;;;;17.80;43.60;;;;;;5070801;28;19920;-73
2023/01/28 07:28:20;;;;;;;;;;;17.80;43.50;;;;;;5072641;28;19999;-73
2023/01/28 07:30:49;;;;;;;;;;;17.80;43.60;;;;;;5082370;28;19916;-73
2023/01/28 07:33:14;;;;;;;;;;;17.90;43.70;;;;;;5069136;28;19912;-73
2023/01/28 07:35:39;;;;;;;;;;;17.80;43.70;;;;;;5061664;28;20526;-74
2023/01/28 07:38:05;;;;;;;;;;;17.80;43.60;;;;;;5072252;28;19939;-73
2023/01/28 07:40:30;;;;;;;;;;;17.90;43.70;;;;;;5075092;28;19920;-73
2023/01/28 07:42:56;;;;;;;;;;;17.80;43.70;;;;;;5073703;28;19912;-73
2023/01/28 07:45:24;;;;;;;;;;;17.90;43.90;;;;;;5072551;28;19920;-73
2023/01/28 07:47:54;;;;;;;;;;;17.80;43.60;;;;;;5074773;28;20312;-74
2023/01/28 07:50:19;;;;;;;;;;;17.80;43.50;;;;;;5074488;28;20325;-74
2023/01/28 07:52:45;;;;;;;;;;;17.80;43.20;;;;;;5075847;28;20003;-73
2023/01/28 07:55:11;;;;;;;;;;;17.80;43.40;;;;;;5073086;28;19913;-74
2023/01/28 07:57:37;;;;;;;;;;;17.80;43.50;;;;;;5059438;28;19956;-73
2023/01/28 08:00:02;;;;;;;;;;;17.80;43.30;;;;;;5045981;28;19948;-74
2023/01/28 08:02:29;;;;;;;;;;;17.80;43.40;;;;;;5068779;28;20003;-74
2023/01/28 08:04:57;;;;;;;;;;;17.70;43.20;;;;;;5074968;28;20323;-73
2023/01/28 08:07:23;;;;;;;;;;;17.80;43.30;;;;;;5067734;28;19921;-73
2023/01/28 08:09:49;;;;;;;;;;;17.80;43.50;;;;;;5069354;28;20335;-73
2023/01/28 08:12:15;;;;;;;;;;;17.80;43.40;;;;;;5073300;28;19919;-73
2023/01/28 08:14:40;;;;;;;;;;;17.80;43.50;;;;;;5066626;28;19913;-73
2023/01/28 08:17:06;;;;;;;;;;;17.80;43.30;;;;;;5073509;28;19916;-73
2023/01/28 08:19:31;;;;;;;;;;;17.80;43.40;;;;;;5065171;28;19927;-73
2023/01/28 08:21:57;;;;;;;;;;;17.80;43.20;;;;;;5055279;28;19917;-73
2023/01/28 08:24:22;;;;;;;;;;;17.80;43.30;;;;;;5063619;28;19912;-73
2023/01/28 08:26:48;;;;;;;;;;;17.80;43.40;;;;;;5071822;28;20372;-74
2023/01/28 08:29:13;;;;;;;;;;;17.80;43.50;;;;;;5074032;28;20509;-73
2023/01/28 08:31:39;;;;;;;;;;;17.80;43.40;;;;;;5073253;28;20390;-73
2023/01/28 08:34:04;;;;;;;;;;;17.80;43.10;;;;;;5073756;28;20326;-73
2023/01/28 08:36:30;;;;;;;;;;;17.70;43.20;;;;;;5073706;28;20402;-74
2023/01/28 08:38:55;;;;;;;;;;;17.80;43.20;;;;;;5068583;28;19927;-73
2023/01/28 08:41:21;;;;;;;;;;;17.80;42.90;;;;;;5070746;28;19912;-74
2023/01/28 08:43:47;;;;;;;;;;;17.80;43.20;;;;;;5073027;28;19918;-74
2023/01/28 08:46:12;;;;;;;;;;;17.80;43.00;;;;;;5070024;28;19916;-73
2023/01/28 08:48:37;;;;;;;;;;;17.80;42.80;;;;;;5069660;28;19920;-73
2023/01/28 08:51:03;;;;;;;;;;;17.70;42.90;;;;;;5071092;28;20356;-73
2023/01/28 08:53:28;;;;;;;;;;;17.70;42.70;;;;;;5073803;28;19912;-73
2023/01/28 08:55:54;;;;;;;;;;;17.70;42.70;;;;;;5070842;28;19977;-73
2023/01/28 08:58:20;;;;;;;;;;;17.70;42.60;;;;;;5068923;28;19920;-73
2023/01/28 09:00:45;;;;;;;;;;;17.70;42.70;;;;;;5071634;28;20261;-73
2023/01/28 09:03:11;;;;;;;;;;;17.70;42.60;;;;;;5073542;28;19912;-73
2023/01/28 09:05:36;;;;;;;;;;;17.70;42.80;;;;;;5069231;28;19931;-73
2023/01/28 09:08:02;;;;;;;;;;;17.70;42.90;;;;;;5071543;28;19920;-73
2023/01/28 09:10:28;;;;;;;;;;;17.70;42.70;;;;;;5071394;28;19912;-74
2023/01/28 09:12:53;;;;;;;;;;;17.70;42.70;;;;;;5071255;28;19955;-74
2023/01/28 09:15:18;;;;;;;;;;;17.70;42.70;;;;;;5073852;28;19912;-73
2023/01/28 09:17:44;;;;;;;;;;;17.70;42.60;;;;;;5069122;28;20007;-74
2023/01/28 09:20:11;;;;;;;;;;;17.70;42.60;;;;;;5054836;28;19920;-74
2023/01/28 09:22:36;;;;;;;;;;;17.80;42.60;;;;;;5072676;28;19908;-74
2023/01/28 09:25:02;;;;;;;;;;;17.80;42.70;;;;;;5071477;28;19912;-73
2023/01/28 09:27:27;;;;;;;;;;;17.80;42.60;;;;;;5073731;28;19913;-74
2023/01/28 09:29:52;;;;;;;;;;;17.80;42.60;;;;;;5071060;28;19919;-73
2023/01/28 09:32:18;;;;;;;;;;;17.80;42.80;;;;;;5072808;28;19916;-74
2023/01/28 09:34:43;;;;;;;;;;;17.80;42.80;;;;;;5066518;28;19912;-74
2023/01/28 09:37:10;;;;;;;;;;;17.80;42.80;;;;;;5072829;28;19920;-73
2023/01/28 09:39:35;;;;;;;;;;;17.80;42.90;;;;;;5071534;28;19916;-74
2023/01/28 09:42:20;;;;;;;;;;;17.80;42.80;;;;;;5071282;28;20331;-74
2023/01/28 09:44:56;;;;;;;;;;;17.80;42.60;;;;;;5064876;28;19920;-74
2023/01/28 09:47:23;;;;;;;;;;;17.80;42.90;;;;;;5071829;28;20388;-74
2023/01/28 09:49:48;;;;;;;;;;;17.80;42.60;;;;;;5071437;28;19955;-74
2023/01/28 09:52:14;;;;;;;;;;;17.80;42.90;;;;;;5069955;28;19955;-73
2023/01/28 09:54:52;;;;;;;;;;;17.80;42.60;;;;;;5067120;28;19966;-74
2023/01/28 09:57:21;;;;;;;;;;;17.80;43.10;;;;;;5067043;28;19913;-74
2023/01/28 09:59:48;;;;;;;;;;;17.80;42.90;;;;;;5069864;28;19913;-74
2023/01/28 10:02:30;;;;;;;;;;;17.90;43.20;;;;;;5066812;28;20342;-73
2023/01/28 10:04:58;;;;;;;;;;;18.40;42.90;;;;;;5071612;28;19916;-73
2023/01/28 10:07:27;;;;;;;;;;;19.40;41.30;;;;;;5070345;28;19988;-73
2023/01/28 10:09:55;;;;;;;;;;;20.10;40.00;;;;;;5066731;28;19919;-73
2023/01/28 10:12:20;;;;;;;;;;;20.70;38.90;;;;;;5067548;28;20023;-73
2023/01/28 10:14:46;;;;;;;;;;;21.10;38.20;;;;;;5066789;28;19995;-73
2023/01/28 10:17:16;;;;;;;;;;;21.40;37.90;;;;;;5070900;28;19955;-73
2023/01/28 10:20:02;;;;;;;;;;;21.60;37.50;;;;;;5068859;28;19913;-73
2023/01/28 10:22:29;;;;;;;;;;;21.80;37.40;;;;;;5068718;28;19973;-74
2023/01/28 10:25:00;;;;;;;;;;;21.90;37.20;;;;;;5069349;28;20372;-73
2023/01/28 10:27:29;;;;;;;;;;;21.90;37.10;;;;;;5066541;28;19969;-73
2023/01/28 10:29:57;;;;;;;;;;;21.90;37.10;;;;;;5090724;28;21299;-74
2023/01/28 10:32:29;;;;;;;;;;;21.90;37.20;;;;;;5068153;28;20011;-73
2023/01/28 10:34:55;;;;;;;;;;;21.90;37.40;;;;;;5071197;28;20020;-73
2023/01/28 10:37:20;;;;;;;;;;;21.90;37.70;;;;;;5071705;28;19951;-74
2023/01/28 10:39:46;;;;;;;;;;;21.70;38.10;;;;;;5054890;28;20386;-74
2023/01/28 10:42:16;;;;;;;;;;;21.50;38.40;;;;;;5065328;28;19916;-73
2023/01/28 10:44:42;;;;;;;;;;;21.40;38.90;;;;;;5044396;28;19919;-73
2023/01/28 10:47:15;;;;;;;;;;;21.10;39.30;;;;;;5066624;28;19916;-73
2023/01/28 10:49:42;;;;;;;;;;;21.00;39.70;;;;;;5047859;28;19943;-73
2023/01/28 10:52:14;;;;;;;;;;;20.80;39.90;;;;;;5063539;28;19935;-74
2023/01/28 10:54:39;;;;;;;;;;;20.70;40.20;;;;;;5051372;28;20161;-73
2023/01/28 10:57:08;;;;;;;;;;;20.60;40.40;;;;;;5065573;28;19916;-74
2023/01/28 10:59:35;;;;;;;;;;;20.50;40.80;;;;;;5063195;28;19968;-74
2023/01/28 11:02:05;;;;;;;;;;;20.40;41.20;;;;;;5065397;28;19920;-75
2023/01/28 11:04:31;;;;;;;;;;;20.40;41.50;;;;;;5053367;28;19966;-73
2023/01/28 11:06:56;;;;;;;;;;;20.30;41.90;;;;;;5063938;28;19921;-74
2023/01/28 11:09:31;;;;;;;;;;;20.20;42.20;;;;;;5072225;28;19943;-74
2023/01/28 11:11:57;;;;;;;;;;;20.10;42.80;;;;;;5051544;28;20420;-74
2023/01/28 11:14:24;;;;;;;;;;;20.10;42.50;;;;;;5071284;28;20003;-74
2023/01/28 11:16:49;;;;;;;;;;;20.10;42.60;;;;;;5061708;28;19909;-74
2023/01/28 11:19:16;;;;;;;;;;;20.10;42.70;;;;;;5054683;28;20406;-74
2023/01/28 11:21:41;;;;;;;;;;;20.10;42.80;;;;;;5067405;28;19912;-74
2023/01/28 11:24:13;;;;;;;;;;;20.20;42.50;;;;;;5070720;28;19912;-74
2023/01/28 11:26:42;;;;;;;;;;;20.30;42.40;;;;;;5070476;28;20372;-73
2023/01/28 11:29:17;;;;;;;;;;;20.60;42.20;;;;;;5072509;28;20283;-74
2023/01/28 11:31:43;;;;;;;;;;;20.90;42.20;;;;;;5092509;28;20283;-73
2023/01/28 11:34:10;;;;;;;;;;;21.20;42.00;;;;;;5071084;28;19908;-74
2023/01/28 11:36:36;;;;;;;;;;;21.50;41.50;;;;;;5069992;28;20003;-74
2023/01/28 11:39:04;;;;;;;;;;;21.40;41.50;;;;;;5072148;28;20003;-73
2023/01/28 11:41:30;;;;;;;;;;;21.40;41.80;;;;;;5062484;28;19928;-74
2023/01/28 11:43:56;;;;;;;;;;;21.30;41.80;;;;;;5069655;28;19919;-74
2023/01/28 11:46:25;;;;;;;;;;;21.20;42.00;;;;;;5070786;28;19961;-74
2023/01/28 11:49:16;;;;;;;;;;;21.10;42.50;;;;;;5066861;28;19917;-74
2023/01/28 11:52:00;;;;;;;;;;;21.00;42.60;;;;;;5044964;28;19920;-74
2023/01/28 11:54:38;;;;;;;;;;;20.90;42.90;;;;;;5063793;28;19913;-74
2023/01/28 11:57:06;;;;;;;;;;;20.70;42.90;;;;;;5060081;28;19924;-74
2023/01/28 11:59:45;;;;;;;;;;;20.60;43.10;;;;;;5059630;28;19955;-73
2023/01/28 12:02:24;;;;;;;;;;;20.60;43.20;;;;;;5066771;28;19920;-74
2023/01/28 12:04:49;;;;;;;;;;;20.50;43.10;;;;;;5068284;28;19966;-74
2023/01/28 12:07:21;;;;;;;;;;;20.40;43.40;;;;;;5064921;28;19932;-74
2023/01/28 12:10:02;;;;;;;;;;;20.40;43.50;;;;;;5060271;28;20333;-73
2023/01/28 12:12:37;;;;;;;;;;;20.40;43.50;;;;;;5070041;28;20007;-74
2023/01/28 12:15:16;;;;;;;;;;;20.40;43.00;;;;;;5051707;28;20334;-73
2023/01/28 12:17:59;;;;;;;;;;;20.60;43.80;;;;;;5072164;28;20030;-73
2023/01/28 12:20:27;;;;;;;;;;;20.70;43.30;;;;;;5072293;28;19971;-73
2023/01/28 12:22:52;;;;;;;;;;;20.80;42.50;;;;;;5062562;28;20011;-73
2023/01/28 12:25:21;;;;;;;;;;;21.20;42.10;;;;;;5073907;28;19996;-74
2023/01/28 12:27:49;;;;;;;;;;;21.40;41.90;;;;;;5064292;28;19920;-74
2023/01/28 12:30:15;;;;;;;;;;;21.50;41.60;;;;;;5061739;28;20463;-74
2023/01/28 12:32:46;;;;;;;;;;;21.50;41.70;;;;;;5065150;28;19960;-74
2023/01/28 12:35:15;;;;;;;;;;;21.50;41.90;;;;;;5065786;28;19913;-73
2023/01/28 12:37:46;;;;;;;;;;;21.50;42.10;;;;;;5072253;28;19973;-73
2023/01/28 12:40:35;;;;;;;;;;;21.40;42.40;;;;;;5071110;28;20463;-74
2023/01/28 12:43:12;;;;;;;;;;;21.20;42.70;;;;;;5056428;28;20070;-75
2023/01/28 12:45:44;;;;;;;;;;;21.10;43.20;;;;;;5064365;28;19924;-74
2023/01/28 12:48:09;;;;;;;;;;;21.00;43.10;;;;;;5078501;28;19931;-74
2023/01/28 12:50:36;;;;;;;;;;;21.00;43.10;;;;;;5065516;28;19917;-74
2023/01/28 12:53:04;;;;;;;;;;;21.00;43.10;;;;;;5069243;28;20007;-74
2023/01/28 12:55:40;;;;;;;;;;;20.80;43.30;;;;;;5066216;28;19913;-74
2023/01/28 12:58:06;;;;;;;;;;;20.80;43.00;;;;;;5065329;28;19962;-74
2023/01/28 13:00:39;;;;;;;;;;;20.70;43.60;;;;;;5067770;28;19913;-74
2023/01/28 13:03:10;;;;;;;;;;;20.60;43.50;;;;;;5064439;28;19916;-74
2023/01/28 13:05:37;;;;;;;;;;;20.60;43.20;;;;;;5045053;28;19927;-73
2023/01/28 13:08:04;;;;;;;;;;;20.50;43.50;;;;;;5049845;28;20014;-73
2023/01/28 13:10:37;;;;;;;;;;;20.60;43.50;;;;;;5064701;28;19920;-74
2023/01/28 13:13:03;;;;;;;;;;;20.70;42.70;;;;;;5069893;28;19917;-74
2023/01/28 13:15:28;;;;;;;;;;;20.80;42.20;;;;;;5067010;28;19928;-74
2023/01/28 13:17:55;;;;;;;;;;;21.00;42.20;;;;;;5070366;28;19913;-74
2023/01/28 13:20:29;;;;;;;;;;;21.30;41.60;;;;;;5071700;28;20315;-74
2023/01/28 13:23:02;;;;;;;;;;;21.40;41.60;;;;;;5074148;28;19920;-73
2023/01/28 13:25:28;;;;;;;;;;;21.50;41.20;;;;;;5071868;28;19912;-74
2023/01/28 13:27:57;;;;;;;;;;;21.50;41.50;;;;;;5072624;28;20372;-74
2023/01/28 13:30:25;;;;;;;;;;;21.40;41.20;;;;;;5072693;28;20054;-74
2023/01/28 13:32:54;;;;;;;;;;;21.30;41.60;;;;;;5071837;28;19928;-74
2023/01/28 13:35:27;;;;;;;;;;;21.10;42.00;;;;;;5072268;28;19915;-74
2023/01/28 13:37:53;;;;;;;;;;;21.10;42.20;;;;;;5073418;28;19908;-74
2023/01/28 13:40:25;;;;;;;;;;;21.00;42.20;;;;;;5073481;28;20364;-74
2023/01/28 13:43:01;;;;;;;;;;;20.90;42.20;;;;;;5069637;28;19967;-73
2023/01/28 13:45:27;;;;;;;;;;;20.90;42.40;;;;;;5071272;28;20350;-74
2023/01/28 13:47:55;;;;;;;;;;;20.80;43.00;;;;;;5072408;28;19995;-74
2023/01/28 13:50:22;;;;;;;;;;;20.80;42.70;;;;;;5070217;28;19967;-74
2023/01/28 13:53:03;;;;;;;;;;;20.70;43.00;;;;;;5069608;28;19912;-74
2023/01/28 13:55:31;;;;;;;;;;;20.70;43.20;;;;;;5068849;28;20330;-74
2023/01/28 13:58:15;;;;;;;;;;;20.70;43.00;;;;;;5072529;28;19908;-74
2023/01/28 14:00:40;;;;;;;;;;;20.70;42.80;;;;;;5071170;28;20010;-73
2023/01/28 14:03:15;;;;;;;;;;;20.80;42.70;;;;;;5068587;28;20012;-74
2023/01/28 14:05:43;;;;;;;;;;;20.90;42.30;;;;;;5067637;28;20011;-74
2023/01/28 14:08:14;;;;;;;;;;;21.10;42.30;;;;;;5054478;28;19920;-74
2023/01/28 14:10:47;;;;;;;;;;;21.30;41.80;;;;;;5071770;28;19916;-74
2023/01/28 14:13:32;;;;;;;;;;;21.40;41.80;;;;;;5071733;28;20397;-73
2023/01/28 14:16:00;;;;;;;;;;;21.50;41.60;;;;;;5060784;28;19920;-74
2023/01/28 14:18:27;;;;;;;;;;;21.70;41.30;;;;;;5069667;28;20281;-74
2023/01/28 14:20:53;;;;;;;;;;;21.60;41.60;;;;;;5034981;28;20390;-74
2023/01/28 14:23:20;;;;;;;;;;;21.50;41.60;;;;;;5051625;28;19908;-74
2023/01/28 14:25:46;;;;;;;;;;;21.40;41.80;;;;;;5053145;28;19915;-74
2023/01/28 14:28:14;;;;;;;;;;;21.30;42.20;;;;;;5068402;28;19913;-74
2023/01/28 14:30:46;;;;;;;;;;;21.20;42.40;;;;;;5072665;28;19908;-74
2023/01/28 14:33:11;;;;;;;;;;;21.10;42.60;;;;;;5069868;28;19912;-74
2023/01/28 14:35:38;;;;;;;;;;;21.10;42.90;;;;;;5072560;28;20443;-74
2023/01/28 14:38:08;;;;;;;;;;;21.00;43.10;;;;;;5071873;28;19909;-74
2023/01/28 14:40:34;;;;;;;;;;;20.80;43.30;;;;;;5071644;28;20410;-74
2023/01/28 14:43:00;;;;;;;;;;;20.80;43.50;;;;;;5071446;28;19909;-74
2023/01/28 14:45:34;;;;;;;;;;;20.70;43.60;;;;;;5070737;28;19958;-72
2023/01/28 14:48:17;;;;;;;;;;;20.80;43.70;;;;;;5068090;28;19916;-74
2023/01/28 14:50:58;;;;;;;;;;;20.80;43.20;;;;;;5072446;28;19908;-74